Hhl Amur — D5CV2 — position and weather

sailwx.info

Track history (hours):
 
Tides and Currents Weather Stations Pressure Air Temp Water Temp Dewpoint Dewpoint Depression Visibility Wind Speed Wind Dir Waves Ship Positions

Hhl Amur

Last reported at 2018-Feb-13 19:31 UTC. Time now 2018-Feb-19 06:06 UTC.
Position N 36°31' E 014°20'.

Length 138 m; draft 6 m.

Type: Ship. MMSI: 636092457.

Date/timePositionNaut miles runAvg speedWind from/ knotsBaromVisibWave heightAir tempDewpointWater temp
2018-Feb-13 19:31N 36°31' E 014°20'113.8
2018-Feb-13 19:27N 36°31' E 014°19'614.1
2018-Feb-13 19:00N 36°33' E 014°12'67114.0
2018-Feb-11 19:03N 36°41' E 000°15'27013.9
2018-Feb-10 23:38N 35°60' W 005°17'216.1
2018-Feb-10 23:31N 35°59' W 005°19'26411.6
2018-Feb-10 00:45N 38°20' W 010°00'313.8
2018-Feb-10 00:29N 38°23' W 010°01'713.7
2018-Feb-10 00:01N 38°29' W 010°03'713.8
2018-Feb-09 23:29N 38°37' W 010°05'713.8
2018-Feb-09 23:00N 38°43' W 010°07'313.6
2018-Feb-09 22:46N 38°46' W 010°07'413.8
2018-Feb-09 22:30N 38°50' W 010°07'713.5
2018-Feb-09 22:00N 38°57' W 010°06'  
2018-Feb-07 09:30N 49°58' W 002°52'612.8
2018-Feb-07 09:00N 49°60' W 002°43'2614.3
2018-Feb-07 07:12N 50°08' W 002°05'315.2
2018-Feb-07 07:00N 50°09' W 002°00'815.5
2018-Feb-07 06:30N 50°11' W 001°49'815.4
2018-Feb-07 06:00N 50°13' W 001°37'815.4
2018-Feb-07 05:30N 50°15' W 001°26'4113.3
2018-Feb-07 02:24N 50°28' W 000°24'511.7
2018-Feb-07 02:00N 50°29' W 000°17'611.4
2018-Feb-07 01:30N 50°30' W 000°08'611.3
2018-Feb-07 01:00N 50°31' E 000°01'611.4
2018-Feb-07 00:30N 50°33' E 000°09'611.6
2018-Feb-07 00:00N 50°35' E 000°18'612.2
2018-Feb-06 23:30N 50°37' E 000°27'612.9
2018-Feb-06 23:00N 50°39' E 000°37'2114.2
2018-Feb-06 21:30N 50°51' E 001°04'814.6
2018-Feb-06 20:59N 50°57' E 001°13'814.4
2018-Feb-06 20:25N 51°02' E 001°23'613.7
2018-Feb-06 20:00N 51°05' E 001°30'1212.5
2018-Feb-06 19:00N 51°13' E 001°45'612.0
2018-Feb-06 18:30N 51°19' E 001°48'611.4
2018-Feb-06 18:00N 51°24' E 001°53'1211.8
2018-Feb-06 17:00N 51°33' E 002°04'612.3
2018-Feb-06 16:30N 51°38' E 002°11'612.4
2018-Feb-06 16:00N 51°42' E 002°18'712.9
2018-Feb-06 15:29N 51°47' E 002°26'15110.8
2018-Feb-06 01:34N 54°02' E 000°35'112.0
2018-Feb-06 01:29N 54°02' E 000°33'912.0
2018-Feb-06 00:42N 54°08' E 000°20'1512.2
2018-Feb-05 23:30N 54°15' W 000°01'612.7
2018-Feb-05 23:00N 54°20' W 000°09'713.0
2018-Feb-05 22:30N 54°24' W 000°17'29 0.9
2018-Feb-04 15:30N 54°40' W 000°59'1810.0
2018-Feb-04 13:41N 54°32' W 000°31'210.8
2018-Feb-04 13:30N 54°31' W 000°28'510.6
2018-Feb-04 13:00N 54°27' W 000°22'510.5
2018-Feb-04 12:30N 54°24' W 000°15'611.0
2018-Feb-04 12:00N 54°20' W 000°08'611.3
2018-Feb-04 11:30N 54°17' W 000°00'1610.6
2018-Feb-04 10:00N 54°07' E 000°21'  
Track history (hours):
 
Tides and Currents Weather Stations Pressure Air Temp Water Temp Dewpoint Dewpoint Depression Visibility Wind Speed Wind Dir Waves Ship Positions

Hhl Amur

Last reported at 2018-Feb-13 19:31 UTC. Time now 2018-Feb-19 06:06 UTC.
Position N 36°31' E 014°20'.

Length 138 m; draft 6 m.

Type: Ship. MMSI: 636092457.

Date/timePositionNaut miles runAvg speedWind from/ knotsBaromVisibWave heightAir tempDewpointWater temp
2018-Feb-13 19:31N 36°31' E 014°20'113.8
2018-Feb-13 19:27N 36°31' E 014°19'614.1
2018-Feb-13 19:00N 36°33' E 014°12'67114.0
2018-Feb-11 19:03N 36°41' E 000°15'27013.9
2018-Feb-10 23:38N 35°60' W 005°17'216.1
2018-Feb-10 23:31N 35°59' W 005°19'26411.6
2018-Feb-10 00:45N 38°20' W 010°00'313.8
2018-Feb-10 00:29N 38°23' W 010°01'713.7
2018-Feb-10 00:01N 38°29' W 010°03'713.8
2018-Feb-09 23:29N 38°37' W 010°05'713.8
2018-Feb-09 23:00N 38°43' W 010°07'313.6
2018-Feb-09 22:46N 38°46' W 010°07'413.8
2018-Feb-09 22:30N 38°50' W 010°07'713.5
2018-Feb-09 22:00N 38°57' W 010°06'  
2018-Feb-07 09:30N 49°58' W 002°52'612.8
2018-Feb-07 09:00N 49°60' W 002°43'2614.3
2018-Feb-07 07:12N 50°08' W 002°05'315.2
2018-Feb-07 07:00N 50°09' W 002°00'815.5
2018-Feb-07 06:30N 50°11' W 001°49'815.4
2018-Feb-07 06:00N 50°13' W 001°37'815.4
2018-Feb-07 05:30N 50°15' W 001°26'4113.3
2018-Feb-07 02:24N 50°28' W 000°24'511.7
2018-Feb-07 02:00N 50°29' W 000°17'611.4
2018-Feb-07 01:30N 50°30' W 000°08'611.3
2018-Feb-07 01:00N 50°31' E 000°01'611.4
2018-Feb-07 00:30N 50°33' E 000°09'611.6
2018-Feb-07 00:00N 50°35' E 000°18'612.2
2018-Feb-06 23:30N 50°37' E 000°27'612.9
2018-Feb-06 23:00N 50°39' E 000°37'2114.2
2018-Feb-06 21:30N 50°51' E 001°04'814.6
2018-Feb-06 20:59N 50°57' E 001°13'814.4
2018-Feb-06 20:25N 51°02' E 001°23'613.7
2018-Feb-06 20:00N 51°05' E 001°30'1212.5
2018-Feb-06 19:00N 51°13' E 001°45'612.0
2018-Feb-06 18:30N 51°19' E 001°48'611.4
2018-Feb-06 18:00N 51°24' E 001°53'1211.8
2018-Feb-06 17:00N 51°33' E 002°04'612.3
2018-Feb-06 16:30N 51°38' E 002°11'612.4
2018-Feb-06 16:00N 51°42' E 002°18'712.9
2018-Feb-06 15:29N 51°47' E 002°26'15110.8
2018-Feb-06 01:34N 54°02' E 000°35'112.0
2018-Feb-06 01:29N 54°02' E 000°33'912.0
2018-Feb-06 00:42N 54°08' E 000°20'1512.2
2018-Feb-05 23:30N 54°15' W 000°01'612.7
2018-Feb-05 23:00N 54°20' W 000°09'713.0
2018-Feb-05 22:30N 54°24' W 000°17'29 0.9
2018-Feb-04 15:30N 54°40' W 000°59'1810.0
2018-Feb-04 13:41N 54°32' W 000°31'210.8
2018-Feb-04 13:30N 54°31' W 000°28'510.6
2018-Feb-04 13:00N 54°27' W 000°22'510.5
2018-Feb-04 12:30N 54°24' W 000°15'611.0
2018-Feb-04 12:00N 54°20' W 000°08'611.3
2018-Feb-04 11:30N 54°17' W 000°00'1610.6
2018-Feb-04 10:00N 54°07' E 000°21'  

Dump ship's entire track history